sensor_id;sensor_type;location;lat;lon;timestamp;P1;durP1;ratioP1;P2;durP2;ratioP2
53519;SDS011;39397;53.204;5.778;2022-08-21T00:00:06;12.23;;;5.10;;
53519;SDS011;39397;53.204;5.778;2022-08-21T00:02:35;11.75;;;5.47;;
53519;SDS011;39397;53.204;5.778;2022-08-21T00:05:01;17.20;;;5.57;;
53519;SDS011;39397;53.204;5.778;2022-08-21T00:07:28;10.90;;;5.70;;
53519;SDS011;39397;53.204;5.778;2022-08-21T00:09:53;14.57;;;5.43;;
53519;SDS011;39397;53.204;5.778;2022-08-21T00:12:19;10.63;;;5.20;;
53519;SDS011;39397;53.204;5.778;2022-08-21T00:14:45;12.13;;;5.63;;
53519;SDS011;39397;53.204;5.778;2022-08-21T00:17:11;10.38;;;4.95;;
53519;SDS011;39397;53.204;5.778;2022-08-21T00:19:36;11.18;;;5.38;;
53519;SDS011;39397;53.204;5.778;2022-08-21T00:22:02;9.95;;;5.78;;
53519;SDS011;39397;53.204;5.778;2022-08-21T00:24:28;13.95;;;5.55;;
53519;SDS011;39397;53.204;5.778;2022-08-21T00:26:54;10.20;;;5.18;;
53519;SDS011;39397;53.204;5.778;2022-08-21T00:29:20;12.43;;;6.18;;
53519;SDS011;39397;53.204;5.778;2022-08-21T00:31:46;12.98;;;6.38;;
53519;SDS011;39397;53.204;5.778;2022-08-21T00:34:12;11.68;;;5.05;;
53519;SDS011;39397;53.204;5.778;2022-08-21T00:36:38;11.75;;;5.47;;
53519;SDS011;39397;53.204;5.778;2022-08-21T00:39:05;13.93;;;5.38;;
53519;SDS011;39397;53.204;5.778;2022-08-21T00:41:33;13.73;;;5.35;;
53519;SDS011;39397;53.204;5.778;2022-08-21T00:44:01;13.25;;;5.82;;
53519;SDS011;39397;53.204;5.778;2022-08-21T00:46:27;12.00;;;5.80;;
53519;SDS011;39397;53.204;5.778;2022-08-21T00:48:53;11.20;;;5.43;;
53519;SDS011;39397;53.204;5.778;2022-08-21T00:51:20;11.23;;;5.50;;
53519;SDS011;39397;53.204;5.778;2022-08-21T00:53:54;16.02;;;5.97;;
53519;SDS011;39397;53.204;5.778;2022-08-21T00:56:24;13.18;;;6.05;;
53519;SDS011;39397;53.204;5.778;2022-08-21T00:58:51;12.27;;;5.63;;
53519;SDS011;39397;53.204;5.778;2022-08-21T01:01:19;14.02;;;5.80;;
53519;SDS011;39397;53.204;5.778;2022-08-21T01:03:45;11.75;;;6.05;;
53519;SDS011;39397;53.204;5.778;2022-08-21T01:06:11;11.23;;;5.68;;
53519;SDS011;39397;53.204;5.778;2022-08-21T01:08:38;10.23;;;5.70;;
53519;SDS011;39397;53.204;5.778;2022-08-21T01:11:03;13.95;;;6.60;;
53519;SDS011;39397;53.204;5.778;2022-08-21T01:13:32;11.63;;;5.32;;
53519;SDS011;39397;53.204;5.778;2022-08-21T01:18:33;12.75;;;5.85;;
53519;SDS011;39397;53.204;5.778;2022-08-21T01:21:09;14.60;;;6.10;;
53519;SDS011;39397;53.204;5.778;2022-08-21T01:23:35;13.70;;;5.78;;
53519;SDS011;39397;53.204;5.778;2022-08-21T01:26:03;17.80;;;6.10;;
53519;SDS011;39397;53.204;5.778;2022-08-21T01:28:31;11.82;;;5.57;;
53519;SDS011;39397;53.204;5.778;2022-08-21T01:31:02;10.27;;;6.00;;
53519;SDS011;39397;53.204;5.778;2022-08-21T01:33:31;11.50;;;5.78;;
53519;SDS011;39397;53.204;5.778;2022-08-21T01:35:56;13.27;;;6.30;;
53519;SDS011;39397;53.204;5.778;2022-08-21T01:38:22;13.43;;;6.13;;
53519;SDS011;39397;53.204;5.778;2022-08-21T01:40:48;15.68;;;6.45;;
53519;SDS011;39397;53.204;5.778;2022-08-21T01:43:14;12.05;;;6.00;;
53519;SDS011;39397;53.204;5.778;2022-08-21T01:45:39;10.90;;;6.55;;
53519;SDS011;39397;53.204;5.778;2022-08-21T01:48:05;11.60;;;5.93;;
53519;SDS011;39397;53.204;5.778;2022-08-21T01:50:31;13.85;;;7.22;;
53519;SDS011;39397;53.204;5.778;2022-08-21T01:52:57;11.25;;;5.75;;
53519;SDS011;39397;53.204;5.778;2022-08-21T01:55:23;16.52;;;7.65;;
53519;SDS011;39397;53.204;5.778;2022-08-21T01:57:49;11.25;;;6.47;;
53519;SDS011;39397;53.204;5.778;2022-08-21T02:00:16;11.63;;;6.00;;
53519;SDS011;39397;53.204;5.778;2022-08-21T02:02:44;12.65;;;6.60;;
53519;SDS011;39397;53.204;5.778;2022-08-21T02:05:11;13.75;;;6.47;;
53519;SDS011;39397;53.204;5.778;2022-08-21T02:07:38;8.18;;;5.65;;
53519;SDS011;39397;53.204;5.778;2022-08-21T02:10:09;12.85;;;6.95;;
53519;SDS011;39397;53.204;5.778;2022-08-21T02:12:37;13.48;;;6.72;;
53519;SDS011;39397;53.204;5.778;2022-08-21T02:15:04;14.90;;;6.90;;
53519;SDS011;39397;53.204;5.778;2022-08-21T02:22:54;12.05;;;6.13;;
53519;SDS011;39397;53.204;5.778;2022-08-21T02:25:22;12.40;;;6.40;;
53519;SDS011;39397;53.204;5.778;2022-08-21T02:27:49;14.48;;;6.70;;
53519;SDS011;39397;53.204;5.778;2022-08-21T02:30:18;11.63;;;6.70;;
53519;SDS011;39397;53.204;5.778;2022-08-21T02:32:47;13.95;;;6.03;;
53519;SDS011;39397;53.204;5.778;2022-08-21T02:35:13;10.02;;;6.18;;
53519;SDS011;39397;53.204;5.778;2022-08-21T02:37:42;12.88;;;6.80;;
53519;SDS011;39397;53.204;5.778;2022-08-21T02:40:10;12.85;;;6.53;;
53519;SDS011;39397;53.204;5.778;2022-08-21T02:42:36;12.10;;;6.30;;
53519;SDS011;39397;53.204;5.778;2022-08-21T02:45:03;11.35;;;6.35;;
53519;SDS011;39397;53.204;5.778;2022-08-21T02:47:30;11.93;;;6.38;;
53519;SDS011;39397;53.204;5.778;2022-08-21T02:49:55;14.63;;;7.25;;
53519;SDS011;39397;53.204;5.778;2022-08-21T02:52:21;10.13;;;6.47;;
53519;SDS011;39397;53.204;5.778;2022-08-21T02:54:47;9.85;;;6.55;;
53519;SDS011;39397;53.204;5.778;2022-08-21T02:57:12;16.60;;;6.68;;
53519;SDS011;39397;53.204;5.778;2022-08-21T02:59:38;12.93;;;7.00;;
53519;SDS011;39397;53.204;5.778;2022-08-21T03:02:05;15.55;;;7.03;;
53519;SDS011;39397;53.204;5.778;2022-08-21T03:04:31;13.18;;;6.78;;
53519;SDS011;39397;53.204;5.778;2022-08-21T03:06:57;11.85;;;6.88;;
53519;SDS011;39397;53.204;5.778;2022-08-21T03:09:23;11.77;;;7.03;;
53519;SDS011;39397;53.204;5.778;2022-08-21T03:11:49;15.88;;;7.53;;
53519;SDS011;39397;53.204;5.778;2022-08-21T03:14:16;14.65;;;6.95;;
53519;SDS011;39397;53.204;5.778;2022-08-21T03:16:43;13.63;;;7.13;;
53519;SDS011;39397;53.204;5.778;2022-08-21T03:19:09;15.52;;;7.20;;
53519;SDS011;39397;53.204;5.778;2022-08-21T03:21:35;11.35;;;6.90;;
53519;SDS011;39397;53.204;5.778;2022-08-21T03:24:01;9.88;;;6.72;;
53519;SDS011;39397;53.204;5.778;2022-08-21T03:26:26;13.90;;;7.25;;
53519;SDS011;39397;53.204;5.778;2022-08-21T03:28:53;14.52;;;7.15;;
53519;SDS011;39397;53.204;5.778;2022-08-21T03:31:19;12.63;;;7.38;;
53519;SDS011;39397;53.204;5.778;2022-08-21T03:33:46;13.52;;;6.55;;
53519;SDS011;39397;53.204;5.778;2022-08-21T03:36:12;16.77;;;7.38;;
53519;SDS011;39397;53.204;5.778;2022-08-21T03:38:38;13.60;;;6.78;;
53519;SDS011;39397;53.204;5.778;2022-08-21T03:41:04;14.23;;;7.07;;
53519;SDS011;39397;53.204;5.778;2022-08-21T03:43:31;10.60;;;7.00;;
53519;SDS011;39397;53.204;5.778;2022-08-21T03:45:58;11.10;;;7.47;;
53519;SDS011;39397;53.204;5.778;2022-08-21T03:48:27;14.85;;;7.28;;
53519;SDS011;39397;53.204;5.778;2022-08-21T03:50:53;14.63;;;7.25;;
53519;SDS011;39397;53.204;5.778;2022-08-21T03:53:19;14.68;;;7.00;;
53519;SDS011;39397;53.204;5.778;2022-08-21T03:55:46;13.52;;;6.82;;
53519;SDS011;39397;53.204;5.778;2022-08-21T03:58:17;13.05;;;7.10;;
53519;SDS011;39397;53.204;5.778;2022-08-21T04:00:45;13.18;;;6.20;;
53519;SDS011;39397;53.204;5.778;2022-08-21T04:03:13;10.80;;;6.65;;
53519;SDS011;39397;53.204;5.778;2022-08-21T04:05:38;14.80;;;7.53;;
53519;SDS011;39397;53.204;5.778;2022-08-21T04:08:04;12.00;;;7.13;;
53519;SDS011;39397;53.204;5.778;2022-08-21T04:10:31;14.85;;;7.15;;
53519;SDS011;39397;53.204;5.778;2022-08-21T04:12:59;15.88;;;7.72;;
53519;SDS011;39397;53.204;5.778;2022-08-21T04:15:26;9.32;;;6.43;;
53519;SDS011;39397;53.204;5.778;2022-08-21T04:17:52;12.48;;;7.47;;
53519;SDS011;39397;53.204;5.778;2022-08-21T04:20:18;15.82;;;8.07;;
53519;SDS011;39397;53.204;5.778;2022-08-21T04:22:46;11.13;;;7.35;;
53519;SDS011;39397;53.204;5.778;2022-08-21T04:25:13;12.80;;;7.57;;
53519;SDS011;39397;53.204;5.778;2022-08-21T04:27:40;15.40;;;6.65;;
53519;SDS011;39397;53.204;5.778;2022-08-21T04:30:06;14.25;;;7.32;;
53519;SDS011;39397;53.204;5.778;2022-08-21T04:32:34;16.85;;;8.20;;
53519;SDS011;39397;53.204;5.778;2022-08-21T04:35:02;13.10;;;6.43;;
53519;SDS011;39397;53.204;5.778;2022-08-21T04:37:33;15.60;;;7.97;;
53519;SDS011;39397;53.204;5.778;2022-08-21T04:40:00;14.25;;;7.35;;
53519;SDS011;39397;53.204;5.778;2022-08-21T04:42:26;13.48;;;6.90;;
53519;SDS011;39397;53.204;5.778;2022-08-21T04:44:53;14.30;;;7.07;;
53519;SDS011;39397;53.204;5.778;2022-08-21T04:47:20;16.92;;;7.82;;
53519;SDS011;39397;53.204;5.778;2022-08-21T04:49:46;12.40;;;7.13;;
53519;SDS011;39397;53.204;5.778;2022-08-21T04:52:12;15.75;;;7.05;;
53519;SDS011;39397;53.204;5.778;2022-08-21T04:54:41;16.33;;;6.65;;
53519;SDS011;39397;53.204;5.778;2022-08-21T04:57:10;12.40;;;6.45;;
53519;SDS011;39397;53.204;5.778;2022-08-21T04:59:38;14.65;;;7.57;;
53519;SDS011;39397;53.204;5.778;2022-08-21T05:02:08;13.95;;;6.72;;
53519;SDS011;39397;53.204;5.778;2022-08-21T05:04:36;14.00;;;6.78;;
53519;SDS011;39397;53.204;5.778;2022-08-21T05:07:10;13.48;;;7.30;;
53519;SDS011;39397;53.204;5.778;2022-08-21T05:09:40;12.02;;;6.88;;
53519;SDS011;39397;53.204;5.778;2022-08-21T05:12:06;9.85;;;7.13;;
53519;SDS011;39397;53.204;5.778;2022-08-21T05:14:32;16.88;;;7.97;;
53519;SDS011;39397;53.204;5.778;2022-08-21T05:16:58;11.40;;;6.88;;
53519;SDS011;39397;53.204;5.778;2022-08-21T05:19:24;15.80;;;6.95;;
53519;SDS011;39397;53.204;5.778;2022-08-21T05:21:51;16.38;;;7.63;;
53519;SDS011;39397;53.204;5.778;2022-08-21T05:24:16;15.88;;;6.57;;
53519;SDS011;39397;53.204;5.778;2022-08-21T05:26:43;10.95;;;6.95;;
53519;SDS011;39397;53.204;5.778;2022-08-21T05:29:09;15.27;;;7.60;;
53519;SDS011;39397;53.204;5.778;2022-08-21T05:31:36;15.73;;;7.85;;
53519;SDS011;39397;53.204;5.778;2022-08-21T05:34:02;19.13;;;7.78;;
53519;SDS011;39397;53.204;5.778;2022-08-21T05:36:28;13.50;;;6.68;;
53519;SDS011;39397;53.204;5.778;2022-08-21T05:38:54;16.05;;;7.15;;
53519;SDS011;39397;53.204;5.778;2022-08-21T05:41:20;11.63;;;6.38;;
53519;SDS011;39397;53.204;5.778;2022-08-21T05:43:45;13.32;;;6.50;;
53519;SDS011;39397;53.204;5.778;2022-08-21T05:46:11;12.02;;;6.93;;
53519;SDS011;39397;53.204;5.778;2022-08-21T05:48:37;12.75;;;6.18;;
53519;SDS011;39397;53.204;5.778;2022-08-21T05:51:06;16.05;;;7.25;;
53519;SDS011;39397;53.204;5.778;2022-08-21T05:53:34;10.95;;;6.00;;
53519;SDS011;39397;53.204;5.778;2022-08-21T05:56:01;18.23;;;6.63;;
53519;SDS011;39397;53.204;5.778;2022-08-21T05:58:29;14.02;;;6.28;;
53519;SDS011;39397;53.204;5.778;2022-08-21T06:00:56;13.13;;;6.85;;
53519;SDS011;39397;53.204;5.778;2022-08-21T06:03:24;13.48;;;5.35;;
53519;SDS011;39397;53.204;5.778;2022-08-21T06:05:52;13.65;;;5.45;;
53519;SDS011;39397;53.204;5.778;2022-08-21T06:08:18;13.02;;;5.60;;
53519;SDS011;39397;53.204;5.778;2022-08-21T06:10:46;13.32;;;5.78;;
53519;SDS011;39397;53.204;5.778;2022-08-21T06:13:13;13.23;;;5.75;;
53519;SDS011;39397;53.204;5.778;2022-08-21T06:15:39;11.55;;;5.57;;
53519;SDS011;39397;53.204;5.778;2022-08-21T06:18:05;16.25;;;5.90;;
53519;SDS011;39397;53.204;5.778;2022-08-21T06:20:31;12.70;;;5.65;;
53519;SDS011;39397;53.204;5.778;2022-08-21T06:22:57;12.48;;;5.65;;
53519;SDS011;39397;53.204;5.778;2022-08-21T06:25:24;12.43;;;5.50;;
53519;SDS011;39397;53.204;5.778;2022-08-21T06:27:50;10.30;;;4.78;;
53519;SDS011;39397;53.204;5.778;2022-08-21T06:30:16;13.02;;;4.63;;
53519;SDS011;39397;53.204;5.778;2022-08-21T06:32:42;11.98;;;5.55;;
53519;SDS011;39397;53.204;5.778;2022-08-21T06:35:07;15.60;;;5.40;;
53519;SDS011;39397;53.204;5.778;2022-08-21T06:37:33;12.32;;;4.13;;
53519;SDS011;39397;53.204;5.778;2022-08-21T06:39:59;10.82;;;4.10;;
53519;SDS011;39397;53.204;5.778;2022-08-21T06:42:25;17.70;;;5.20;;
53519;SDS011;39397;53.204;5.778;2022-08-21T06:44:52;13.13;;;5.45;;
53519;SDS011;39397;53.204;5.778;2022-08-21T06:47:19;13.50;;;5.03;;
53519;SDS011;39397;53.204;5.778;2022-08-21T06:49:44;11.45;;;5.00;;
53519;SDS011;39397;53.204;5.778;2022-08-21T06:52:11;13.32;;;4.68;;
53519;SDS011;39397;53.204;5.778;2022-08-21T06:54:37;9.80;;;3.80;;
53519;SDS011;39397;53.204;5.778;2022-08-21T06:57:03;13.55;;;3.90;;
53519;SDS011;39397;53.204;5.778;2022-08-21T06:59:29;13.90;;;4.10;;
53519;SDS011;39397;53.204;5.778;2022-08-21T07:01:56;10.68;;;3.28;;
53519;SDS011;39397;53.204;5.778;2022-08-21T07:04:22;11.45;;;3.05;;
53519;SDS011;39397;53.204;5.778;2022-08-21T07:06:48;22.10;;;3.33;;
53519;SDS011;39397;53.204;5.778;2022-08-21T07:09:14;18.98;;;3.50;;
53519;SDS011;39397;53.204;5.778;2022-08-21T07:11:39;11.60;;;2.70;;
53519;SDS011;39397;53.204;5.778;2022-08-21T07:14:05;14.85;;;3.20;;
53519;SDS011;39397;53.204;5.778;2022-08-21T07:16:31;12.10;;;2.88;;
53519;SDS011;39397;53.204;5.778;2022-08-21T07:18:57;10.38;;;2.85;;
53519;SDS011;39397;53.204;5.778;2022-08-21T07:21:22;10.65;;;2.40;;
53519;SDS011;39397;53.204;5.778;2022-08-21T07:23:49;9.43;;;2.15;;
53519;SDS011;39397;53.204;5.778;2022-08-21T07:26:19;14.23;;;2.97;;
53519;SDS011;39397;53.204;5.778;2022-08-21T07:28:46;10.60;;;2.53;;
53519;SDS011;39397;53.204;5.778;2022-08-21T07:31:14;13.35;;;2.53;;
53519;SDS011;39397;53.204;5.778;2022-08-21T07:33:41;13.90;;;2.97;;
53519;SDS011;39397;53.204;5.778;2022-08-21T07:36:08;17.95;;;3.25;;
53519;SDS011;39397;53.204;5.778;2022-08-21T07:38:34;10.98;;;2.70;;
53519;SDS011;39397;53.204;5.778;2022-08-21T07:41:00;11.55;;;2.75;;
53519;SDS011;39397;53.204;5.778;2022-08-21T07:43:28;11.70;;;3.05;;
53519;SDS011;39397;53.204;5.778;2022-08-21T07:45:54;14.13;;;3.10;;
53519;SDS011;39397;53.204;5.778;2022-08-21T07:48:21;10.40;;;2.88;;
53519;SDS011;39397;53.204;5.778;2022-08-21T07:50:47;15.75;;;3.83;;
53519;SDS011;39397;53.204;5.778;2022-08-21T07:53:13;12.27;;;3.22;;
53519;SDS011;39397;53.204;5.778;2022-08-21T07:55:39;16.98;;;3.30;;
53519;SDS011;39397;53.204;5.778;2022-08-21T07:58:05;13.55;;;3.10;;
53519;SDS011;39397;53.204;5.778;2022-08-21T08:00:31;12.60;;;3.33;;
53519;SDS011;39397;53.204;5.778;2022-08-21T08:02:58;9.02;;;2.83;;
53519;SDS011;39397;53.204;5.778;2022-08-21T08:05:28;11.80;;;3.90;;
53519;SDS011;39397;53.204;5.778;2022-08-21T08:07:55;9.10;;;3.13;;
53519;SDS011;39397;53.204;5.778;2022-08-21T08:10:21;12.27;;;2.95;;
53519;SDS011;39397;53.204;5.778;2022-08-21T08:12:48;14.07;;;3.20;;
53519;SDS011;39397;53.204;5.778;2022-08-21T08:15:17;11.63;;;3.40;;
53519;SDS011;39397;53.204;5.778;2022-08-21T08:17:45;15.25;;;3.47;;
53519;SDS011;39397;53.204;5.778;2022-08-21T08:20:11;11.45;;;2.72;;
53519;SDS011;39397;53.204;5.778;2022-08-21T08:22:38;16.70;;;3.33;;
53519;SDS011;39397;53.204;5.778;2022-08-21T08:25:06;14.57;;;2.83;;
53519;SDS011;39397;53.204;5.778;2022-08-21T08:27:33;11.15;;;3.25;;
53519;SDS011;39397;53.204;5.778;2022-08-21T08:29:59;11.65;;;2.85;;
53519;SDS011;39397;53.204;5.778;2022-08-21T08:32:24;12.07;;;2.92;;
53519;SDS011;39397;53.204;5.778;2022-08-21T08:34:51;13.27;;;3.67;;
53519;SDS011;39397;53.204;5.778;2022-08-21T08:37:17;10.23;;;2.38;;
53519;SDS011;39397;53.204;5.778;2022-08-21T08:39:45;8.00;;;2.45;;
53519;SDS011;39397;53.204;5.778;2022-08-21T08:42:12;10.73;;;3.05;;
53519;SDS011;39397;53.204;5.778;2022-08-21T08:44:46;10.73;;;2.83;;
53519;SDS011;39397;53.204;5.778;2022-08-21T08:47:13;11.95;;;3.05;;
53519;SDS011;39397;53.204;5.778;2022-08-21T08:52:36;11.10;;;2.58;;
53519;SDS011;39397;53.204;5.778;2022-08-21T08:55:17;10.07;;;2.67;;
53519;SDS011;39397;53.204;5.778;2022-08-21T08:57:46;8.20;;;2.40;;
53519;SDS011;39397;53.204;5.778;2022-08-21T09:00:14;7.40;;;2.08;;
53519;SDS011;39397;53.204;5.778;2022-08-21T09:02:42;9.82;;;2.58;;
53519;SDS011;39397;53.204;5.778;2022-08-21T09:05:25;11.32;;;2.20;;
53519;SDS011;39397;53.204;5.778;2022-08-21T09:10:38;10.88;;;3.03;;
53519;SDS011;39397;53.204;5.778;2022-08-21T09:13:31;8.70;;;2.58;;
53519;SDS011;39397;53.204;5.778;2022-08-21T09:23:50;11.15;;;3.33;;
53519;SDS011;39397;53.204;5.778;2022-08-21T09:26:45;10.93;;;2.65;;
53519;SDS011;39397;53.204;5.778;2022-08-21T09:29:16;8.80;;;2.25;;
53519;SDS011;39397;53.204;5.778;2022-08-21T09:31:46;8.80;;;2.10;;
53519;SDS011;39397;53.204;5.778;2022-08-21T09:34:12;7.95;;;2.08;;
53519;SDS011;39397;53.204;5.778;2022-08-21T09:36:50;9.05;;;1.92;;
53519;SDS011;39397;53.204;5.778;2022-08-21T09:42:11;7.90;;;2.30;;
53519;SDS011;39397;53.204;5.778;2022-08-21T09:44:48;7.53;;;1.60;;
53519;SDS011;39397;53.204;5.778;2022-08-21T09:47:29;10.38;;;2.42;;
53519;SDS011;39397;53.204;5.778;2022-08-21T09:49:55;6.75;;;2.00;;
53519;SDS011;39397;53.204;5.778;2022-08-21T09:52:22;6.63;;;1.70;;
53519;SDS011;39397;53.204;5.778;2022-08-21T09:54:51;7.15;;;2.22;;
53519;SDS011;39397;53.204;5.778;2022-08-21T09:57:23;7.40;;;2.00;;
53519;SDS011;39397;53.204;5.778;2022-08-21T10:02:51;9.07;;;2.08;;
53519;SDS011;39397;53.204;5.778;2022-08-21T10:05:19;5.30;;;1.80;;
53519;SDS011;39397;53.204;5.778;2022-08-21T10:07:48;6.68;;;1.75;;
53519;SDS011;39397;53.204;5.778;2022-08-21T10:10:16;9.27;;;2.03;;
53519;SDS011;39397;53.204;5.778;2022-08-21T10:12:49;8.05;;;1.83;;
53519;SDS011;39397;53.204;5.778;2022-08-21T10:21:03;5.80;;;1.50;;
53519;SDS011;39397;53.204;5.778;2022-08-21T10:26:04;6.50;;;1.40;;
53519;SDS011;39397;53.204;5.778;2022-08-21T10:29:01;4.60;;;1.30;;
53519;SDS011;39397;53.204;5.778;2022-08-21T10:31:49;8.77;;;1.65;;
53519;SDS011;39397;53.204;5.778;2022-08-21T10:39:45;7.70;;;1.60;;
53519;SDS011;39397;53.204;5.778;2022-08-21T10:42:28;5.43;;;1.42;;
53519;SDS011;39397;53.204;5.778;2022-08-21T10:45:31;7.07;;;1.33;;
53519;SDS011;39397;53.204;5.778;2022-08-21T10:48:05;6.78;;;1.60;;
53519;SDS011;39397;53.204;5.778;2022-08-21T11:01:43;6.53;;;1.60;;
53519;SDS011;39397;53.204;5.778;2022-08-21T11:04:21;5.07;;;1.35;;
53519;SDS011;39397;53.204;5.778;2022-08-21T11:07:04;6.60;;;1.65;;
53519;SDS011;39397;53.204;5.778;2022-08-21T11:09:36;6.35;;;1.58;;
53519;SDS011;39397;53.204;5.778;2022-08-21T11:12:06;5.68;;;1.40;;
53519;SDS011;39397;53.204;5.778;2022-08-21T11:17:18;4.68;;;1.23;;
53519;SDS011;39397;53.204;5.778;2022-08-21T11:19:53;5.35;;;1.33;;
53519;SDS011;39397;53.204;5.778;2022-08-21T11:25:21;5.80;;;1.77;;
53519;SDS011;39397;53.204;5.778;2022-08-21T11:28:00;8.10;;;1.63;;
53519;SDS011;39397;53.204;5.778;2022-08-21T11:30:35;12.27;;;1.77;;
53519;SDS011;39397;53.204;5.778;2022-08-21T11:35:48;8.80;;;1.48;;
53519;SDS011;39397;53.204;5.778;2022-08-21T11:43:56;6.60;;;1.80;;
53519;SDS011;39397;53.204;5.778;2022-08-21T11:46:39;7.07;;;1.40;;
53519;SDS011;39397;53.204;5.778;2022-08-21T11:55:12;5.13;;;1.65;;
53519;SDS011;39397;53.204;5.778;2022-08-21T12:00:47;5.80;;;1.40;;
53519;SDS011;39397;53.204;5.778;2022-08-21T12:03:22;7.68;;;1.58;;
53519;SDS011;39397;53.204;5.778;2022-08-21T12:05:53;4.28;;;1.27;;
53519;SDS011;39397;53.204;5.778;2022-08-21T12:16:39;6.60;;;1.40;;
53519;SDS011;39397;53.204;5.778;2022-08-21T12:19:10;6.05;;;1.17;;
53519;SDS011;39397;53.204;5.778;2022-08-21T12:21:53;5.78;;;1.42;;
53519;SDS011;39397;53.204;5.778;2022-08-21T12:24:29;5.88;;;1.38;;
53519;SDS011;39397;53.204;5.778;2022-08-21T12:26:58;5.05;;;1.55;;
53519;SDS011;39397;53.204;5.778;2022-08-21T12:29:38;5.70;;;1.40;;
53519;SDS011;39397;53.204;5.778;2022-08-21T12:34:36;7.20;;;1.80;;
53519;SDS011;39397;53.204;5.778;2022-08-21T12:37:43;6.07;;;1.73;;
53519;SDS011;39397;53.204;5.778;2022-08-21T12:40:52;5.35;;;1.30;;
53519;SDS011;39397;53.204;5.778;2022-08-21T12:43:38;6.43;;;1.52;;
53519;SDS011;39397;53.204;5.778;2022-08-21T12:46:06;6.15;;;1.70;;
53519;SDS011;39397;53.204;5.778;2022-08-21T12:48:42;6.85;;;1.70;;
53519;SDS011;39397;53.204;5.778;2022-08-21T12:51:17;7.60;;;1.73;;
53519;SDS011;39397;53.204;5.778;2022-08-21T12:53:51;7.25;;;1.50;;
53519;SDS011;39397;53.204;5.778;2022-08-21T12:56:23;7.20;;;1.70;;
53519;SDS011;39397;53.204;5.778;2022-08-21T12:59:00;7.30;;;1.40;;
53519;SDS011;39397;53.204;5.778;2022-08-21T13:01:43;6.68;;;1.50;;
53519;SDS011;39397;53.204;5.778;2022-08-21T13:04:15;8.75;;;2.25;;
53519;SDS011;39397;53.204;5.778;2022-08-21T13:06:45;9.80;;;1.73;;
53519;SDS011;39397;53.204;5.778;2022-08-21T13:09:15;6.90;;;1.40;;
53519;SDS011;39397;53.204;5.778;2022-08-21T13:11:43;8.98;;;1.63;;
53519;SDS011;39397;53.204;5.778;2022-08-21T13:14:23;8.05;;;1.75;;
53519;SDS011;39397;53.204;5.778;2022-08-21T13:16:57;7.15;;;1.80;;
53519;SDS011;39397;53.204;5.778;2022-08-21T13:19:24;6.30;;;1.58;;
53519;SDS011;39397;53.204;5.778;2022-08-21T13:21:50;7.70;;;1.70;;
53519;SDS011;39397;53.204;5.778;2022-08-21T13:24:25;4.97;;;1.30;;
53519;SDS011;39397;53.204;5.778;2022-08-21T13:26:52;7.32;;;1.58;;
53519;SDS011;39397;53.204;5.778;2022-08-21T13:29:20;5.78;;;1.20;;
53519;SDS011;39397;53.204;5.778;2022-08-21T13:31:53;6.25;;;1.40;;
53519;SDS011;39397;53.204;5.778;2022-08-21T13:34:28;6.90;;;1.63;;
53519;SDS011;39397;53.204;5.778;2022-08-21T13:37:00;7.32;;;1.67;;
53519;SDS011;39397;53.204;5.778;2022-08-21T13:39:29;5.75;;;1.58;;
53519;SDS011;39397;53.204;5.778;2022-08-21T13:41:57;6.07;;;1.80;;
53519;SDS011;39397;53.204;5.778;2022-08-21T13:44:34;4.68;;;1.02;;
53519;SDS011;39397;53.204;5.778;2022-08-21T13:47:04;8.52;;;1.45;;
53519;SDS011;39397;53.204;5.778;2022-08-21T13:49:33;6.13;;;1.52;;
53519;SDS011;39397;53.204;5.778;2022-08-21T13:52:19;6.70;;;1.27;;
53519;SDS011;39397;53.204;5.778;2022-08-21T13:54:57;6.53;;;1.40;;
53519;SDS011;39397;53.204;5.778;2022-08-21T13:57:29;7.80;;;1.48;;
53519;SDS011;39397;53.204;5.778;2022-08-21T14:02:44;6.43;;;1.73;;
53519;SDS011;39397;53.204;5.778;2022-08-21T14:05:27;4.15;;;1.40;;
53519;SDS011;39397;53.204;5.778;2022-08-21T14:08:01;7.25;;;1.60;;
53519;SDS011;39397;53.204;5.778;2022-08-21T14:10:43;5.00;;;1.73;;
53519;SDS011;39397;53.204;5.778;2022-08-21T14:13:35;6.38;;;1.80;;
53519;SDS011;39397;53.204;5.778;2022-08-21T14:16:12;8.43;;;1.50;;
53519;SDS011;39397;53.204;5.778;2022-08-21T14:18:47;8.55;;;1.83;;
53519;SDS011;39397;53.204;5.778;2022-08-21T14:21:24;6.60;;;1.73;;
53519;SDS011;39397;53.204;5.778;2022-08-21T14:23:59;7.22;;;1.92;;
53519;SDS011;39397;53.204;5.778;2022-08-21T14:26:30;6.53;;;1.77;;
53519;SDS011;39397;53.204;5.778;2022-08-21T14:29:00;7.03;;;1.60;;
53519;SDS011;39397;53.204;5.778;2022-08-21T14:31:28;8.35;;;1.40;;
53519;SDS011;39397;53.204;5.778;2022-08-21T14:33:57;8.98;;;2.00;;
53519;SDS011;39397;53.204;5.778;2022-08-21T14:36:24;7.40;;;1.95;;
53519;SDS011;39397;53.204;5.778;2022-08-21T14:38:49;6.53;;;1.67;;
53519;SDS011;39397;53.204;5.778;2022-08-21T14:41:19;8.70;;;1.70;;
53519;SDS011;39397;53.204;5.778;2022-08-21T14:43:51;9.55;;;2.05;;
53519;SDS011;39397;53.204;5.778;2022-08-21T14:46:25;5.20;;;1.50;;
53519;SDS011;39397;53.204;5.778;2022-08-21T14:48:53;8.15;;;1.80;;
53519;SDS011;39397;53.204;5.778;2022-08-21T14:51:19;7.72;;;1.95;;
53519;SDS011;39397;53.204;5.778;2022-08-21T14:53:44;6.90;;;1.45;;
53519;SDS011;39397;53.204;5.778;2022-08-21T14:56:11;6.63;;;2.00;;
53519;SDS011;39397;53.204;5.778;2022-08-21T14:58:39;8.07;;;1.88;;
53519;SDS011;39397;53.204;5.778;2022-08-21T15:01:10;7.07;;;1.77;;
53519;SDS011;39397;53.204;5.778;2022-08-21T15:03:38;6.50;;;1.55;;
53519;SDS011;39397;53.204;5.778;2022-08-21T15:06:05;9.10;;;1.55;;
53519;SDS011;39397;53.204;5.778;2022-08-21T15:08:31;8.90;;;1.80;;
53519;SDS011;39397;53.204;5.778;2022-08-21T15:10:57;6.45;;;1.80;;
53519;SDS011;39397;53.204;5.778;2022-08-21T15:13:25;8.55;;;1.80;;
53519;SDS011;39397;53.204;5.778;2022-08-21T15:15:51;6.45;;;1.98;;
53519;SDS011;39397;53.204;5.778;2022-08-21T15:18:21;8.20;;;1.55;;
53519;SDS011;39397;53.204;5.778;2022-08-21T15:20:48;10.32;;;1.73;;
53519;SDS011;39397;53.204;5.778;2022-08-21T15:23:14;5.82;;;1.52;;
53519;SDS011;39397;53.204;5.778;2022-08-21T15:25:41;6.90;;;2.22;;
53519;SDS011;39397;53.204;5.778;2022-08-21T15:28:09;7.20;;;1.33;;
53519;SDS011;39397;53.204;5.778;2022-08-21T15:30:37;8.15;;;1.67;;
53519;SDS011;39397;53.204;5.778;2022-08-21T15:33:05;7.10;;;1.85;;
53519;SDS011;39397;53.204;5.778;2022-08-21T15:35:31;7.03;;;1.70;;
53519;SDS011;39397;53.204;5.778;2022-08-21T15:37:58;7.53;;;1.48;;
53519;SDS011;39397;53.204;5.778;2022-08-21T15:40:23;8.15;;;1.65;;
53519;SDS011;39397;53.204;5.778;2022-08-21T15:42:50;6.95;;;1.75;;
53519;SDS011;39397;53.204;5.778;2022-08-21T15:45:19;5.40;;;1.45;;
53519;SDS011;39397;53.204;5.778;2022-08-21T15:47:45;8.15;;;1.55;;
53519;SDS011;39397;53.204;5.778;2022-08-21T15:50:11;6.07;;;1.90;;
53519;SDS011;39397;53.204;5.778;2022-08-21T15:52:37;6.85;;;1.58;;
53519;SDS011;39397;53.204;5.778;2022-08-21T15:55:04;8.65;;;1.85;;
53519;SDS011;39397;53.204;5.778;2022-08-21T15:57:30;5.28;;;1.45;;
53519;SDS011;39397;53.204;5.778;2022-08-21T15:59:57;7.53;;;2.25;;
53519;SDS011;39397;53.204;5.778;2022-08-21T16:02:33;7.63;;;1.92;;
53519;SDS011;39397;53.204;5.778;2022-08-21T16:05:05;7.50;;;2.28;;
53519;SDS011;39397;53.204;5.778;2022-08-21T16:07:32;6.22;;;1.77;;
53519;SDS011;39397;53.204;5.778;2022-08-21T16:09:58;6.10;;;1.70;;
53519;SDS011;39397;53.204;5.778;2022-08-21T16:12:27;7.57;;;1.70;;
53519;SDS011;39397;53.204;5.778;2022-08-21T16:14:58;6.38;;;2.33;;
53519;SDS011;39397;53.204;5.778;2022-08-21T16:17:28;7.03;;;2.10;;
53519;SDS011;39397;53.204;5.778;2022-08-21T16:19:56;6.75;;;1.80;;